Aviation Digital Data Service (ADDS)

Output produced by METARs form (0326 UTC 19 August 2019)
found at http://www.aviationweather.gov/metar/data/
 
METAR text: RJAA 190300Z 04011KT 5000 -SHRA BR FEW004 SCT005 BKN006 27/25 Q1011 TEMPO 4000 -SHRA BR
Conditions at: RJAA (NARITA INTL , JP) observed 0300 UTC 19 August 2019
Temperature: 27.0°C (81°F)
Dewpoint: 25.0°C (77°F) [RH = 89%]
Pressure (altimeter): 29.85 inches Hg (1011.0 mb)
Winds: from the NE (40 degrees) at 13 MPH (11 knots; 5.7 m/s)
Visibility: 3 miles ( 5 km)
Ceiling: 600 feet AGL
Clouds: few clouds at 400 feet AGL
scattered clouds at 500 feet AGL
broken clouds at 600 feet AGL
Weather: -SHRA BR  (light rain showers, mist)

METAR text: RJAA 190230Z 04010KT 350V070 4500 -SHRA BR FEW005 SCT006 BKN008 28/26 Q1011 NOSIG
Conditions at: RJAA (NARITA INTL , JP) observed 0230 UTC 19 August 2019
Temperature: 28.0°C (82°F)
Dewpoint: 26.0°C (79°F) [RH = 89%]
Pressure (altimeter): 29.85 inches Hg (1011.0 mb)
Winds: from the NE (40 degrees) at 12 MPH (10 knots; 5.1 m/s)
Visibility: 2.80 miles (4.51 km)
Ceiling: 800 feet AGL
Clouds: few clouds at 500 feet AGL
scattered clouds at 600 feet AGL
broken clouds at 800 feet AGL
Weather: -SHRA BR  (light rain showers, mist)

METAR text: RJAA 190200Z 03009KT 360V060 6000 -SHRA FEW006 SCT007 BKN008 28/26 Q1011 NOSIG
Conditions at: RJAA (NARITA INTL , JP) observed 0200 UTC 19 August 2019
Temperature: 28.0°C (82°F)
Dewpoint: 26.0°C (79°F) [RH = 89%]
Pressure (altimeter): 29.85 inches Hg (1011.0 mb)
Winds: from the NNE (30 degrees) at 10 MPH (9 knots; 4.6 m/s)
Visibility: 4 miles ( 6 km)
Ceiling: 800 feet AGL
Clouds: few clouds at 600 feet AGL
scattered clouds at 700 feet AGL
broken clouds at 800 feet AGL
Weather: -SHRA  (light rain showers)

METAR text: RJAA 190130Z 02009KT 6000 BR FEW005 SCT006 BKN008 27/25 Q1012 BECMG FEW008 BKN012
Conditions at: RJAA (NARITA INTL , JP) observed 0130 UTC 19 August 2019
Temperature: 27.0°C (81°F)
Dewpoint: 25.0°C (77°F) [RH = 89%]
Pressure (altimeter): 29.88 inches Hg (1012.0 mb)
Winds: from the NNE (20 degrees) at 10 MPH (9 knots; 4.6 m/s)
Visibility: 4 miles ( 6 km)
Ceiling: 800 feet AGL
Clouds: few clouds at 500 feet AGL
scattered clouds at 600 feet AGL
broken clouds at 800 feet AGL
Weather: BR  (mist)

METAR text: RJAA 190100Z 03010KT 4500 BR FEW004 SCT006 BKN008 28/26 Q1012 BECMG 6000 NSW FEW008 BKN012
Conditions at: RJAA (NARITA INTL , JP) observed 0100 UTC 19 August 2019
Temperature: 28.0°C (82°F)
Dewpoint: 26.0°C (79°F) [RH = 89%]
Pressure (altimeter): 29.88 inches Hg (1012.0 mb)
Winds: from the NNE (30 degrees) at 12 MPH (10 knots; 5.1 m/s)
Visibility: 2.80 miles (4.51 km)
Ceiling: 800 feet AGL
Clouds: few clouds at 400 feet AGL
scattered clouds at 600 feet AGL
broken clouds at 800 feet AGL
Weather: BR  (mist)

METAR text: RJAA 190030Z 03008KT 3500 BR FEW003 SCT004 BKN006 27/26 Q1012 BECMG 6000 NSW
Conditions at: RJAA (NARITA INTL , JP) observed 0030 UTC 19 August 2019
Temperature: 27.0°C (81°F)
Dewpoint: 26.0°C (79°F) [RH = 94%]
Pressure (altimeter): 29.88 inches Hg (1012.0 mb)
Winds: from the NNE (30 degrees) at 9 MPH (8 knots; 4.1 m/s)
Visibility: 2.17 miles (3.49 km)
Ceiling: 600 feet AGL
Clouds: few clouds at 300 feet AGL
scattered clouds at 400 feet AGL
broken clouds at 600 feet AGL
Weather: BR  (mist)

METAR text: RJAA 190000Z 04008KT 2800 BR FEW002 BKN003 26/26 Q1011 NOSIG
Conditions at: RJAA (NARITA INTL , JP) observed 0000 UTC 19 August 2019
Temperature: 26.0°C (79°F)
Dewpoint: 26.0°C (79°F) [RH = 100%]
Pressure (altimeter): 29.85 inches Hg (1011.0 mb)
Winds: from the NE (40 degrees) at 9 MPH (8 knots; 4.1 m/s)
Visibility: 1.74 miles (2.80 km)
Ceiling: 300 feet AGL
Clouds: few clouds at 200 feet AGL
broken clouds at 300 feet AGL
Weather: BR  (mist)

METAR text: RJAA 182330Z 03008KT 3200 -SHRA BR FEW002 BKN003 26/25 Q1011 BECMG TL0030 6000 NSW FEW003 BKN007
Conditions at: RJAA (NARITA INTL , JP) observed 2330 UTC 18 August 2019
Temperature: 26.0°C (79°F)
Dewpoint: 25.0°C (77°F) [RH = 94%]
Pressure (altimeter): 29.85 inches Hg (1011.0 mb)
Winds: from the NNE (30 degrees) at 9 MPH (8 knots; 4.1 m/s)
Visibility: 1.99 miles (3.20 km)
Ceiling: 300 feet AGL
Clouds: few clouds at 200 feet AGL
broken clouds at 300 feet AGL
Weather: -SHRA BR  (light rain showers, mist)

METAR text: RJAA 182300Z 01010KT 2500 R34L/P2000N R34R/P2000N SHRA BR FEW002 BKN003 BKN006 26/25 Q1011 BECMG TL0030 6000 -SHRA FEW003 BKN007
Conditions at: RJAA (NARITA INTL , JP) observed 2300 UTC 18 August 2019
Temperature: 26.0°C (79°F)
Dewpoint: 25.0°C (77°F) [RH = 94%]
Pressure (altimeter): 29.85 inches Hg (1011.0 mb)
Winds: from the N (10 degrees) at 12 MPH (10 knots; 5.1 m/s)
Visibility: 1.55 miles (2.49 km)
Ceiling: 300 feet AGL
Clouds: few clouds at 200 feet AGL
broken clouds at 300 feet AGL
broken clouds at 600 feet AGL
Weather: SHRA BR  (rain showers, mist)

METAR text: RJAA 182230Z 02009KT 4500 -SHRA BR FEW003 BKN004 26/25 Q1011 TEMPO 3000 SHRA BR
Conditions at: RJAA (NARITA INTL , JP) observed 2230 UTC 18 August 2019
Temperature: 26.0°C (79°F)
Dewpoint: 25.0°C (77°F) [RH = 94%]
Pressure (altimeter): 29.85 inches Hg (1011.0 mb)
Winds: from the NNE (20 degrees) at 10 MPH (9 knots; 4.6 m/s)
Visibility: 2.80 miles (4.51 km)
Ceiling: 400 feet AGL
Clouds: few clouds at 300 feet AGL
broken clouds at 400 feet AGL
Weather: -SHRA BR  (light rain showers, mist)

METAR text: RJAA 182200Z 02007KT 4500 BR FEW003 BKN004 26/25 Q1011 BECMG 6000 NSW FEW003 BKN007
Conditions at: RJAA (NARITA INTL , JP) observed 2200 UTC 18 August 2019
Temperature: 26.0°C (79°F)
Dewpoint: 25.0°C (77°F) [RH = 94%]
Pressure (altimeter): 29.85 inches Hg (1011.0 mb)
Winds: from the NNE (20 degrees) at 8 MPH (7 knots; 3.6 m/s)
Visibility: 2.80 miles (4.51 km)
Ceiling: 400 feet AGL
Clouds: few clouds at 300 feet AGL
broken clouds at 400 feet AGL
Weather: BR  (mist)

METAR text: RJAA 182130Z 02008KT 4000 BR FEW003 BKN004 25/24 Q1011 BECMG 6000 NSW FEW003 BKN007
Conditions at: RJAA (NARITA INTL , JP) observed 2130 UTC 18 August 2019
Temperature: 25.0°C (77°F)
Dewpoint: 24.0°C (75°F) [RH = 94%]
Pressure (altimeter): 29.85 inches Hg (1011.0 mb)
Winds: from the NNE (20 degrees) at 9 MPH (8 knots; 4.1 m/s)
Visibility: 2.49 miles (4.01 km)
Ceiling: 400 feet AGL
Clouds: few clouds at 300 feet AGL
broken clouds at 400 feet AGL
Weather: BR  (mist)

METAR text: RJAA 182100Z 02008KT 3600 BR FEW003 BKN004 25/25 Q1011 BECMG 6000 NSW
Conditions at: RJAA (NARITA INTL , JP) observed 2100 UTC 18 August 2019
Temperature: 25.0°C (77°F)
Dewpoint: 25.0°C (77°F) [RH = 100%]
Pressure (altimeter): 29.85 inches Hg (1011.0 mb)
Winds: from the NNE (20 degrees) at 9 MPH (8 knots; 4.1 m/s)
Visibility: 2.24 miles (3.60 km)
Ceiling: 400 feet AGL
Clouds: few clouds at 300 feet AGL
broken clouds at 400 feet AGL
Weather: BR  (mist)

METAR text: RJAA 182030Z 02008KT 2400 BR FEW002 BKN003 25/25 Q1010 BECMG 3500 BR
Conditions at: RJAA (NARITA INTL , JP) observed 2030 UTC 18 August 2019
Temperature: 25.0°C (77°F)
Dewpoint: 25.0°C (77°F) [RH = 100%]
Pressure (altimeter): 29.82 inches Hg (1010.0 mb)
Winds: from the NNE (20 degrees) at 9 MPH (8 knots; 4.1 m/s)
Visibility: 1.49 miles (2.40 km)
Ceiling: 300 feet AGL
Clouds: few clouds at 200 feet AGL
broken clouds at 300 feet AGL
Weather: BR  (mist)

METAR text: RJAA 182000Z 02009KT 2000 BR FEW002 BKN003 25/25 Q1010 NOSIG
Conditions at: RJAA (NARITA INTL , JP) observed 2000 UTC 18 August 2019
Temperature: 25.0°C (77°F)
Dewpoint: 25.0°C (77°F) [RH = 100%]
Pressure (altimeter): 29.82 inches Hg (1010.0 mb)
Winds: from the NNE (20 degrees) at 10 MPH (9 knots; 4.6 m/s)
Visibility: 1.24 miles (2.00 km)
Ceiling: 300 feet AGL
Clouds: few clouds at 200 feet AGL
broken clouds at 300 feet AGL
Weather: BR  (mist)

METAR text: RJAA 181930Z 01007KT 1800 BR FEW002 BKN003 25/25 Q1010 TEMPO 1500 BR
Conditions at: RJAA (NARITA INTL , JP) observed 1930 UTC 18 August 2019
Temperature: 25.0°C (77°F)
Dewpoint: 25.0°C (77°F) [RH = 100%]
Pressure (altimeter): 29.82 inches Hg (1010.0 mb)
Winds: from the N (10 degrees) at 8 MPH (7 knots; 3.6 m/s)
Visibility: 1.12 miles (1.80 km)
Ceiling: 300 feet AGL
Clouds: few clouds at 200 feet AGL
broken clouds at 300 feet AGL
Weather: BR  (mist)

METAR text: RJAA 181900Z 03006KT 1800 BR FEW001 SCT002 BKN003 25/25 Q1010 TEMPO 1500 BR
Conditions at: RJAA (NARITA INTL , JP) observed 1900 UTC 18 August 2019
Temperature: 25.0°C (77°F)
Dewpoint: 25.0°C (77°F) [RH = 100%]
Pressure (altimeter): 29.82 inches Hg (1010.0 mb)
Winds: from the NNE (30 degrees) at 7 MPH (6 knots; 3.1 m/s)
Visibility: 1.12 miles (1.80 km)
Ceiling: 300 feet AGL
Clouds: few clouds at 100 feet AGL
scattered clouds at 200 feet AGL
broken clouds at 300 feet AGL
Weather: BR  (mist)

METAR text: RJAA 181830Z 02006KT 1500 R34L/P2000N R34R/P2000N BR FEW001 BKN002 BKN003 25/25 Q1010 NOSIG
Conditions at: RJAA (NARITA INTL , JP) observed 1830 UTC 18 August 2019
Temperature: 25.0°C (77°F)
Dewpoint: 25.0°C (77°F) [RH = 100%]
Pressure (altimeter): 29.82 inches Hg (1010.0 mb)
Winds: from the NNE (20 degrees) at 7 MPH (6 knots; 3.1 m/s)
Visibility: 0.93 miles (1.50 km)
Ceiling: 200 feet AGL
Clouds: few clouds at 100 feet AGL
broken clouds at 200 feet AGL
broken clouds at 300 feet AGL
Weather: BR  (mist)

METAR text: RJAA 181800Z 01008KT 1200 R34L/P2000N R34R/1900N BR FEW001 BKN002 25/25 Q1010 NOSIG
Conditions at: RJAA (NARITA INTL , JP) observed 1800 UTC 18 August 2019
Temperature: 25.0°C (77°F)
Dewpoint: 25.0°C (77°F) [RH = 100%]
Pressure (altimeter): 29.82 inches Hg (1010.0 mb)
Winds: from the N (10 degrees) at 9 MPH (8 knots; 4.1 m/s)
Visibility: 0.75 miles (1.21 km)
Ceiling: 200 feet AGL
Clouds: few clouds at 100 feet AGL
broken clouds at 200 feet AGL
Weather: BR  (mist)

METAR text: RJAA 181730Z 03005KT 1500 R34L/P2000N R34R/P2000N BR FEW001 BKN002 BKN003 26/25 Q1010 NOSIG
Conditions at: RJAA (NARITA INTL , JP) observed 1730 UTC 18 August 2019
Temperature: 26.0°C (79°F)
Dewpoint: 25.0°C (77°F) [RH = 94%]
Pressure (altimeter): 29.82 inches Hg (1010.0 mb)
Winds: from the NNE (30 degrees) at 6 MPH (5 knots; 2.6 m/s)
Visibility: 0.93 miles (1.50 km)
Ceiling: 200 feet AGL
Clouds: few clouds at 100 feet AGL
broken clouds at 200 feet AGL
broken clouds at 300 feet AGL
Weather: BR  (mist)

METAR text: RJAA 181700Z 01007KT 2500 BR FEW002 BKN003 BKN004 26/25 Q1009 NOSIG
Conditions at: RJAA (NARITA INTL , JP) observed 1700 UTC 18 August 2019
Temperature: 26.0°C (79°F)
Dewpoint: 25.0°C (77°F) [RH = 94%]
Pressure (altimeter): 29.79 inches Hg (1009.0 mb)
Winds: from the N (10 degrees) at 8 MPH (7 knots; 3.6 m/s)
Visibility: 1.55 miles (2.49 km)
Ceiling: 300 feet AGL
Clouds: few clouds at 200 feet AGL
broken clouds at 300 feet AGL
broken clouds at 400 feet AGL
Weather: BR  (mist)

METAR text: RJAA 181630Z 36008KT 3000 BR FEW003 BKN004 BKN005 26/25 Q1009 NOSIG
Conditions at: RJAA (NARITA INTL , JP) observed 1630 UTC 18 August 2019
Temperature: 26.0°C (79°F)
Dewpoint: 25.0°C (77°F) [RH = 94%]
Pressure (altimeter): 29.79 inches Hg (1009.0 mb)
Winds: from the N (360 degrees) at 9 MPH (8 knots; 4.1 m/s)
Visibility: 1.86 miles (2.99 km)
Ceiling: 400 feet AGL
Clouds: few clouds at 300 feet AGL
broken clouds at 400 feet AGL
broken clouds at 500 feet AGL
Weather: BR  (mist)

METAR text: RJAA 181600Z 35006KT 310V020 3500 BR FEW002 SCT003 BKN004 26/25 Q1009 BECMG 3000 BR
Conditions at: RJAA (NARITA INTL , JP) observed 1600 UTC 18 August 2019
Temperature: 26.0°C (79°F)
Dewpoint: 25.0°C (77°F) [RH = 94%]
Pressure (altimeter): 29.79 inches Hg (1009.0 mb)
Winds: from the N (350 degrees) at 7 MPH (6 knots; 3.1 m/s)
Visibility: 2.17 miles (3.49 km)
Ceiling: 400 feet AGL
Clouds: few clouds at 200 feet AGL
scattered clouds at 300 feet AGL
broken clouds at 400 feet AGL
Weather: BR  (mist)

METAR text: RJAA 181530Z 01008KT 4000 BR FEW003 BKN004 BKN006 26/25 Q1009 BECMG 3000 BR
Conditions at: RJAA (NARITA INTL , JP) observed 1530 UTC 18 August 2019
Temperature: 26.0°C (79°F)
Dewpoint: 25.0°C (77°F) [RH = 94%]
Pressure (altimeter): 29.79 inches Hg (1009.0 mb)
Winds: from the N (10 degrees) at 9 MPH (8 knots; 4.1 m/s)
Visibility: 2.49 miles (4.01 km)
Ceiling: 400 feet AGL
Clouds: few clouds at 300 feet AGL
broken clouds at 400 feet AGL
broken clouds at 600 feet AGL
Weather: BR  (mist)

METAR text: RJAA 181500Z 03004KT 4000 BR FEW003 BKN004 BKN006 26/25 Q1009 BECMG 3000 BR
Conditions at: RJAA (NARITA INTL , JP) observed 1500 UTC 18 August 2019
Temperature: 26.0°C (79°F)
Dewpoint: 25.0°C (77°F) [RH = 94%]
Pressure (altimeter): 29.79 inches Hg (1009.0 mb)
Winds: from the NNE (30 degrees) at 5 MPH (4 knots; 2.1 m/s)
Visibility: 2.49 miles (4.01 km)
Ceiling: 400 feet AGL
Clouds: few clouds at 300 feet AGL
broken clouds at 400 feet AGL
broken clouds at 600 feet AGL
Weather: BR  (mist)

METAR text: RJAA 181430Z 03005KT 360V060 4000 BR FEW003 BKN004 BKN006 26/25 Q1009 BECMG 3000 BR
Conditions at: RJAA (NARITA INTL , JP) observed 1430 UTC 18 August 2019
Temperature: 26.0°C (79°F)
Dewpoint: 25.0°C (77°F) [RH = 94%]
Pressure (altimeter): 29.79 inches Hg (1009.0 mb)
Winds: from the NNE (30 degrees) at 6 MPH (5 knots; 2.6 m/s)
Visibility: 2.49 miles (4.01 km)
Ceiling: 400 feet AGL
Clouds: few clouds at 300 feet AGL
broken clouds at 400 feet AGL
broken clouds at 600 feet AGL
Weather: BR  (mist)

METAR text: RJAA 181400Z 01006KT 4000 BR FEW003 BKN004 BKN006 26/25 Q1009 BECMG 3000 BR
Conditions at: RJAA (NARITA INTL , JP) observed 1400 UTC 18 August 2019
Temperature: 26.0°C (79°F)
Dewpoint: 25.0°C (77°F) [RH = 94%]
Pressure (altimeter): 29.79 inches Hg (1009.0 mb)
Winds: from the N (10 degrees) at 7 MPH (6 knots; 3.1 m/s)
Visibility: 2.49 miles (4.01 km)
Ceiling: 400 feet AGL
Clouds: few clouds at 300 feet AGL
broken clouds at 400 feet AGL
broken clouds at 600 feet AGL
Weather: BR  (mist)

METAR text: RJAA 181330Z 02005KT 350V060 4000 BR FEW003 BKN004 BKN006 26/25 Q1009 BECMG 3000 BR
Conditions at: RJAA (NARITA INTL , JP) observed 1330 UTC 18 August 2019
Temperature: 26.0°C (79°F)
Dewpoint: 25.0°C (77°F) [RH = 94%]
Pressure (altimeter): 29.79 inches Hg (1009.0 mb)
Winds: from the NNE (20 degrees) at 6 MPH (5 knots; 2.6 m/s)
Visibility: 2.49 miles (4.01 km)
Ceiling: 400 feet AGL
Clouds: few clouds at 300 feet AGL
broken clouds at 400 feet AGL
broken clouds at 600 feet AGL
Weather: BR  (mist)

METAR text: RJAA 181300Z 02007KT 4000 BR FEW003 BKN004 BKN006 26/25 Q1009 NOSIG
Conditions at: RJAA (NARITA INTL , JP) observed 1300 UTC 18 August 2019
Temperature: 26.0°C (79°F)
Dewpoint: 25.0°C (77°F) [RH = 94%]
Pressure (altimeter): 29.79 inches Hg (1009.0 mb)
Winds: from the NNE (20 degrees) at 8 MPH (7 knots; 3.6 m/s)
Visibility: 2.49 miles (4.01 km)
Ceiling: 400 feet AGL
Clouds: few clouds at 300 feet AGL
broken clouds at 400 feet AGL
broken clouds at 600 feet AGL
Weather: BR  (mist)

METAR text: RJAA 181230Z 02006KT 5000 BR FEW004 SCT006 BKN180 26/25 Q1009 BECMG 4000 BR FEW003 BKN005
Conditions at: RJAA (NARITA INTL , JP) observed 1230 UTC 18 August 2019
Temperature: 26.0°C (79°F)
Dewpoint: 25.0°C (77°F) [RH = 94%]
Pressure (altimeter): 29.79 inches Hg (1009.0 mb)
Winds: from the NNE (20 degrees) at 7 MPH (6 knots; 3.1 m/s)
Visibility: 3 miles ( 5 km)
Ceiling: 18000 feet AGL
Clouds: few clouds at 400 feet AGL
scattered clouds at 600 feet AGL
broken clouds at 18000 feet AGL
Weather: BR  (mist)

METAR text: RJAA 181200Z 03006KT 360V070 6000 FEW005 SCT006 BKN180 26/25 Q1009 BECMG 4000 BR FEW005 BKN007
Conditions at: RJAA (NARITA INTL , JP) observed 1200 UTC 18 August 2019
Temperature: 26.0°C (79°F)
Dewpoint: 25.0°C (77°F) [RH = 94%]
Pressure (altimeter): 29.79 inches Hg (1009.0 mb)
Winds: from the NNE (30 degrees) at 7 MPH (6 knots; 3.1 m/s)
Visibility: 4 miles ( 6 km)
Ceiling: 18000 feet AGL
Clouds: few clouds at 500 feet AGL
scattered clouds at 600 feet AGL
broken clouds at 18000 feet AGL
Weather: no significant weather observed at this time

METAR text: RJAA 181130Z 04006KT 360V070 6000 FEW006 SCT008 BKN190 26/25 Q1009 BECMG 4000 BR FEW005 BKN007
Conditions at: RJAA (NARITA INTL , JP) observed 1130 UTC 18 August 2019
Temperature: 26.0°C (79°F)
Dewpoint: 25.0°C (77°F) [RH = 94%]
Pressure (altimeter): 29.79 inches Hg (1009.0 mb)
Winds: from the NE (40 degrees) at 7 MPH (6 knots; 3.1 m/s)
Visibility: 4 miles ( 6 km)
Ceiling: 19000 feet AGL
Clouds: few clouds at 600 feet AGL
scattered clouds at 800 feet AGL
broken clouds at 19000 feet AGL
Weather: no significant weather observed at this time

METAR text: RJAA 181100Z 02006KT 6000 FEW006 BKN012 26/25 Q1009 BECMG FM1200 4000 BR FEW005 BKN007
Conditions at: RJAA (NARITA INTL , JP) observed 1100 UTC 18 August 2019
Temperature: 26.0°C (79°F)
Dewpoint: 25.0°C (77°F) [RH = 94%]
Pressure (altimeter): 29.79 inches Hg (1009.0 mb)
Winds: from the NNE (20 degrees) at 7 MPH (6 knots; 3.1 m/s)
Visibility: 4 miles ( 6 km)
Ceiling: 1200 feet AGL
Clouds: few clouds at 600 feet AGL
broken clouds at 1200 feet AGL
Weather: no significant weather observed at this time

METAR text: RJAA 181030Z 03007KT 350V060 6000 FEW007 SCT012 BKN/// 27/25 Q1008 BECMG FM1200 4000 BR FEW005 BKN009
Conditions at: RJAA (NARITA INTL , JP) observed 1030 UTC 18 August 2019
Temperature: 27.0°C (81°F)
Dewpoint: 25.0°C (77°F) [RH = 89%]
Pressure (altimeter): 29.76 inches Hg (1008.0 mb)
Winds: from the NNE (30 degrees) at 8 MPH (7 knots; 3.6 m/s)
Visibility: 4 miles ( 6 km)
Ceiling: at least 12,000 feet AGL
Clouds: few clouds at 700 feet AGL
scattered clouds at 1200 feet AGL
Weather: no significant weather observed at this time

METAR text: RJAA 181000Z 04007KT 6000 FEW007 SCT012 BKN/// 27/25 Q1008 BECMG FEW008 BKN012
Conditions at: RJAA (NARITA INTL , JP) observed 1000 UTC 18 August 2019
Temperature: 27.0°C (81°F)
Dewpoint: 25.0°C (77°F) [RH = 89%]
Pressure (altimeter): 29.76 inches Hg (1008.0 mb)
Winds: from the NE (40 degrees) at 8 MPH (7 knots; 3.6 m/s)
Visibility: 4 miles ( 6 km)
Ceiling: at least 12,000 feet AGL
Clouds: few clouds at 700 feet AGL
scattered clouds at 1200 feet AGL
Weather: no significant weather observed at this time

METAR text: RJAA 180930Z 06005KT 010V100 6000 FEW012 BKN/// 28/25 Q1008 BECMG 04005KT FEW008 BKN012
Conditions at: RJAA (NARITA INTL , JP) observed 0930 UTC 18 August 2019
Temperature: 28.0°C (82°F)
Dewpoint: 25.0°C (77°F) [RH = 84%]
Pressure (altimeter): 29.76 inches Hg (1008.0 mb)
Winds: from the ENE (60 degrees) at 6 MPH (5 knots; 2.6 m/s)
Visibility: 4 miles ( 6 km)
Ceiling: at least 12,000 feet AGL
Clouds: few clouds at 1200 feet AGL
Weather: no significant weather observed at this time

METAR text: RJAA 180900Z 07006KT 010V090 6000 FEW014 SCT/// 28/25 Q1007 BECMG TL0930 04006KT
Conditions at: RJAA (NARITA INTL , JP) observed 0900 UTC 18 August 2019
Temperature: 28.0°C (82°F)
Dewpoint: 25.0°C (77°F) [RH = 84%]
Pressure (altimeter): 29.73 inches Hg (1007.0 mb)
Winds: from the ENE (70 degrees) at 7 MPH (6 knots; 3.1 m/s)
Visibility: 4 miles ( 6 km)
Ceiling: at least 12,000 feet AGL
Clouds: few clouds at 1400 feet AGL
Weather: no significant weather observed at this time

METAR text: RJAA 180830Z 06006KT 020V100 7000 FEW015 SCT190 29/25 Q1007 BECMG TL0900 04006KT
Conditions at: RJAA (NARITA INTL , JP) observed 0830 UTC 18 August 2019
Temperature: 29.0°C (84°F)
Dewpoint: 25.0°C (77°F) [RH = 79%]
Pressure (altimeter): 29.73 inches Hg (1007.0 mb)
Winds: from the ENE (60 degrees) at 7 MPH (6 knots; 3.1 m/s)
Visibility: 4 miles ( 7 km)
Ceiling: at least 12,000 feet AGL
Clouds: few clouds at 1500 feet AGL
scattered clouds at 19000 feet AGL
Weather: no significant weather observed at this time

METAR text: RJAA 180800Z 08007KT 050V110 8000 FEW015 BKN190 29/24 Q1007 BECMG TL0930 04008KT
Conditions at: RJAA (NARITA INTL , JP) observed 0800 UTC 18 August 2019
Temperature: 29.0°C (84°F)
Dewpoint: 24.0°C (75°F) [RH = 74%]
Pressure (altimeter): 29.73 inches Hg (1007.0 mb)
Winds: from the E (80 degrees) at 8 MPH (7 knots; 3.6 m/s)
Visibility: 5 miles ( 8 km)
Ceiling: 19000 feet AGL
Clouds: few clouds at 1500 feet AGL
broken clouds at 19000 feet AGL
Weather: no significant weather observed at this time

METAR text: RJAA 180730Z 08008KT 010V110 9999 FEW025 BKN190 30/25 Q1007 BECMG 05008KT
Conditions at: RJAA (NARITA INTL , JP) observed 0730 UTC 18 August 2019
Temperature: 30.0°C (86°F)
Dewpoint: 25.0°C (77°F) [RH = 75%]
Pressure (altimeter): 29.73 inches Hg (1007.0 mb)
Winds: from the E (80 degrees) at 9 MPH (8 knots; 4.1 m/s)
Visibility: 6 or more miles (10+ km)
Ceiling: 19000 feet AGL
Clouds: few clouds at 2500 feet AGL
broken clouds at 19000 feet AGL
Weather: no significant weather observed at this time

METAR text: RJAA 180700Z 04009KT 9999 FEW025 BKN180 31/24 Q1007 NOSIG
Conditions at: RJAA (NARITA INTL , JP) observed 0700 UTC 18 August 2019
Temperature: 31.0°C (88°F)
Dewpoint: 24.0°C (75°F) [RH = 66%]
Pressure (altimeter): 29.73 inches Hg (1007.0 mb)
Winds: from the NE (40 degrees) at 10 MPH (9 knots; 4.6 m/s)
Visibility: 6 or more miles (10+ km)
Ceiling: 18000 feet AGL
Clouds: few clouds at 2500 feet AGL
broken clouds at 18000 feet AGL
Weather: no significant weather observed at this time

METAR text: RJAA 180630Z 05009KT 010V080 9999 FEW030 SCT180 31/23 Q1007 NOSIG
Conditions at: RJAA (NARITA INTL , JP) observed 0630 UTC 18 August 2019
Temperature: 31.0°C (88°F)
Dewpoint: 23.0°C (73°F) [RH = 63%]
Pressure (altimeter): 29.73 inches Hg (1007.0 mb)
Winds: from the NE (50 degrees) at 10 MPH (9 knots; 4.6 m/s)
Visibility: 6 or more miles (10+ km)
Ceiling: at least 12,000 feet AGL
Clouds: few clouds at 3000 feet AGL
scattered clouds at 18000 feet AGL
Weather: no significant weather observed at this time

METAR text: RJAA 180600Z 05011KT 020V080 9999 FEW030 SCT/// 31/24 Q1007 NOSIG
Conditions at: RJAA (NARITA INTL , JP) observed 0600 UTC 18 August 2019
Temperature: 31.0°C (88°F)
Dewpoint: 24.0°C (75°F) [RH = 66%]
Pressure (altimeter): 29.73 inches Hg (1007.0 mb)
Winds: from the NE (50 degrees) at 13 MPH (11 knots; 5.7 m/s)
Visibility: 6 or more miles (10+ km)
Ceiling: at least 12,000 feet AGL
Clouds: few clouds at 3000 feet AGL
Weather: no significant weather observed at this time

METAR text: RJAA 180530Z 03012KT 9999 FEW030 32/25 Q1007 NOSIG
Conditions at: RJAA (NARITA INTL , JP) observed 0530 UTC 18 August 2019
Temperature: 32.0°C (90°F)
Dewpoint: 25.0°C (77°F) [RH = 67%]
Pressure (altimeter): 29.73 inches Hg (1007.0 mb)
Winds: from the NNE (30 degrees) at 14 MPH (12 knots; 6.2 m/s)
Visibility: 6 or more miles (10+ km)
Ceiling: at least 12,000 feet AGL
Clouds: few clouds at 3000 feet AGL
Weather: no significant weather observed at this time

METAR text: RJAA 180500Z 05013KT 9999 FEW030 32/24 Q1007 NOSIG
Conditions at: RJAA (NARITA INTL , JP) observed 0500 UTC 18 August 2019
Temperature: 32.0°C (90°F)
Dewpoint: 24.0°C (75°F) [RH = 63%]
Pressure (altimeter): 29.73 inches Hg (1007.0 mb)
Winds: from the NE (50 degrees) at 15 MPH (13 knots; 6.7 m/s)
Visibility: 6 or more miles (10+ km)
Ceiling: at least 12,000 feet AGL
Clouds: few clouds at 3000 feet AGL
Weather: no significant weather observed at this time

METAR text: RJAA 180430Z 03011KT 350V070 9999 FEW030 32/24 Q1007 NOSIG
Conditions at: RJAA (NARITA INTL , JP) observed 0430 UTC 18 August 2019
Temperature: 32.0°C (90°F)
Dewpoint: 24.0°C (75°F) [RH = 63%]
Pressure (altimeter): 29.73 inches Hg (1007.0 mb)
Winds: from the NNE (30 degrees) at 13 MPH (11 knots; 5.7 m/s)
Visibility: 6 or more miles (10+ km)
Ceiling: at least 12,000 feet AGL
Clouds: few clouds at 3000 feet AGL
Weather: no significant weather observed at this time

METAR text: RJAA 180400Z 04012KT 010V070 9999 FEW030 SCT/// 32/23 Q1007 NOSIG
Conditions at: RJAA (NARITA INTL , JP) observed 0400 UTC 18 August 2019
Temperature: 32.0°C (90°F)
Dewpoint: 23.0°C (73°F) [RH = 59%]
Pressure (altimeter): 29.73 inches Hg (1007.0 mb)
Winds: from the NE (40 degrees) at 14 MPH (12 knots; 6.2 m/s)
Visibility: 6 or more miles (10+ km)
Ceiling: at least 12,000 feet AGL
Clouds: few clouds at 3000 feet AGL
Weather: no significant weather observed at this time

METAR text: RJAA 180330Z 04011KT 9999 FEW030 SCT/// 32/24 Q1007 NOSIG
Conditions at: RJAA (NARITA INTL , JP) observed 0330 UTC 18 August 2019
Temperature: 32.0°C (90°F)
Dewpoint: 24.0°C (75°F) [RH = 63%]
Pressure (altimeter): 29.73 inches Hg (1007.0 mb)
Winds: from the NE (40 degrees) at 13 MPH (11 knots; 5.7 m/s)
Visibility: 6 or more miles (10+ km)
Ceiling: at least 12,000 feet AGL
Clouds: few clouds at 3000 feet AGL
Weather: no significant weather observed at this time

METAR text: RJAA 180300Z 02011KT 350V070 9999 FEW025 32/25 Q1007 NOSIG
Conditions at: RJAA (NARITA INTL , JP) observed 0300 UTC 18 August 2019
Temperature: 32.0°C (90°F)
Dewpoint: 25.0°C (77°F) [RH = 67%]
Pressure (altimeter): 29.73 inches Hg (1007.0 mb)
Winds: from the NNE (20 degrees) at 13 MPH (11 knots; 5.7 m/s)
Visibility: 6 or more miles (10+ km)
Ceiling: at least 12,000 feet AGL
Clouds: few clouds at 2500 feet AGL
Weather: no significant weather observed at this time

METAR text: RJAA 180230Z 05012KT 010V080 9999 FEW025 32/25 Q1007 NOSIG
Conditions at: RJAA (NARITA INTL , JP) observed 0230 UTC 18 August 2019
Temperature: 32.0°C (90°F)
Dewpoint: 25.0°C (77°F) [RH = 67%]
Pressure (altimeter): 29.73 inches Hg (1007.0 mb)
Winds: from the NE (50 degrees) at 14 MPH (12 knots; 6.2 m/s)
Visibility: 6 or more miles (10+ km)
Ceiling: at least 12,000 feet AGL
Clouds: few clouds at 2500 feet AGL
Weather: no significant weather observed at this time

METAR text: RJAA 180200Z 03011KT 360V060 9999 FEW025 32/25 Q1007 NOSIG
Conditions at: RJAA (NARITA INTL , JP) observed 0200 UTC 18 August 2019
Temperature: 32.0°C (90°F)
Dewpoint: 25.0°C (77°F) [RH = 67%]
Pressure (altimeter): 29.73 inches Hg (1007.0 mb)
Winds: from the NNE (30 degrees) at 13 MPH (11 knots; 5.7 m/s)
Visibility: 6 or more miles (10+ km)
Ceiling: at least 12,000 feet AGL
Clouds: few clouds at 2500 feet AGL
Weather: no significant weather observed at this time

METAR text: RJAA 180130Z 04012KT 9999 FEW020 31/25 Q1007 NOSIG
Conditions at: RJAA (NARITA INTL , JP) observed 0130 UTC 18 August 2019
Temperature: 31.0°C (88°F)
Dewpoint: 25.0°C (77°F) [RH = 71%]
Pressure (altimeter): 29.73 inches Hg (1007.0 mb)
Winds: from the NE (40 degrees) at 14 MPH (12 knots; 6.2 m/s)
Visibility: 6 or more miles (10+ km)
Ceiling: at least 12,000 feet AGL
Clouds: few clouds at 2000 feet AGL
Weather: no significant weather observed at this time

METAR text: RJAA 180100Z 02011KT 9999 FEW020 32/24 Q1007 NOSIG
Conditions at: RJAA (NARITA INTL , JP) observed 0100 UTC 18 August 2019
Temperature: 32.0°C (90°F)
Dewpoint: 24.0°C (75°F) [RH = 63%]
Pressure (altimeter): 29.73 inches Hg (1007.0 mb)
Winds: from the NNE (20 degrees) at 13 MPH (11 knots; 5.7 m/s)
Visibility: 6 or more miles (10+ km)
Ceiling: at least 12,000 feet AGL
Clouds: few clouds at 2000 feet AGL
Weather: no significant weather observed at this time

METAR text: RJAA 180030Z 01010KT 340V040 CAVOK 32/24 Q1007 NOSIG
Conditions at: RJAA (NARITA INTL , JP) observed 0030 UTC 18 August 2019
Temperature: 32.0°C (90°F)
Dewpoint: 24.0°C (75°F) [RH = 63%]
Pressure (altimeter): 29.73 inches Hg (1007.0 mb)
Winds: from the N (10 degrees) at 12 MPH (10 knots; 5.1 m/s)
Visibility: 6 or more miles (10+ km)
Ceiling: ceiling and visibility are OK
Clouds: unknown
Weather: no significant weather observed at this time

METAR text: RJAA 180000Z 01013KT 9999 FEW020 31/24 Q1007 NOSIG
Conditions at: RJAA (NARITA INTL , JP) observed 0000 UTC 18 August 2019
Temperature: 31.0°C (88°F)
Dewpoint: 24.0°C (75°F) [RH = 66%]
Pressure (altimeter): 29.73 inches Hg (1007.0 mb)
Winds: from the N (10 degrees) at 15 MPH (13 knots; 6.7 m/s)
Visibility: 6 or more miles (10+ km)
Ceiling: at least 12,000 feet AGL
Clouds: few clouds at 2000 feet AGL
Weather: no significant weather observed at this time

METAR text: RJAA 172330Z 03010KT 9999 FEW020 30/24 Q1007 NOSIG
Conditions at: RJAA (NARITA INTL , JP) observed 2330 UTC 17 August 2019
Temperature: 30.0°C (86°F)
Dewpoint: 24.0°C (75°F) [RH = 70%]
Pressure (altimeter): 29.73 inches Hg (1007.0 mb)
Winds: from the NNE (30 degrees) at 12 MPH (10 knots; 5.1 m/s)
Visibility: 6 or more miles (10+ km)
Ceiling: at least 12,000 feet AGL
Clouds: few clouds at 2000 feet AGL
Weather: no significant weather observed at this time

METAR text: RJAA 172300Z 02009KT 9999 FEW020 30/24 Q1007 NOSIG
Conditions at: RJAA (NARITA INTL , JP) observed 2300 UTC 17 August 2019
Temperature: 30.0°C (86°F)
Dewpoint: 24.0°C (75°F) [RH = 70%]
Pressure (altimeter): 29.73 inches Hg (1007.0 mb)
Winds: from the NNE (20 degrees) at 10 MPH (9 knots; 4.6 m/s)
Visibility: 6 or more miles (10+ km)
Ceiling: at least 12,000 feet AGL
Clouds: few clouds at 2000 feet AGL
Weather: no significant weather observed at this time

METAR text: RJAA 172230Z 35006KT 330V050 9999 FEW030 29/25 Q1007 NOSIG
Conditions at: RJAA (NARITA INTL , JP) observed 2230 UTC 17 August 2019
Temperature: 29.0°C (84°F)
Dewpoint: 25.0°C (77°F) [RH = 79%]
Pressure (altimeter): 29.73 inches Hg (1007.0 mb)
Winds: from the N (350 degrees) at 7 MPH (6 knots; 3.1 m/s)
Visibility: 6 or more miles (10+ km)
Ceiling: at least 12,000 feet AGL
Clouds: few clouds at 3000 feet AGL
Weather: no significant weather observed at this time

METAR text: RJAA 172200Z 33005KT 8000 FEW030 28/25 Q1007 NOSIG
Conditions at: RJAA (NARITA INTL , JP) observed 2200 UTC 17 August 2019
Temperature: 28.0°C (82°F)
Dewpoint: 25.0°C (77°F) [RH = 84%]
Pressure (altimeter): 29.73 inches Hg (1007.0 mb)
Winds: from the NNW (330 degrees) at 6 MPH (5 knots; 2.6 m/s)
Visibility: 5 miles ( 8 km)
Ceiling: at least 12,000 feet AGL
Clouds: few clouds at 3000 feet AGL
Weather: no significant weather observed at this time

METAR text: RJAA 172130Z VRB02KT 8000 FEW028 27/25 Q1006 BECMG 02006KT
Conditions at: RJAA (NARITA INTL , JP) observed 2130 UTC 17 August 2019
Temperature: 27.0°C (81°F)
Dewpoint: 25.0°C (77°F) [RH = 89%]
Pressure (altimeter): 29.70 inches Hg (1006.0 mb)
Winds: variable direction winds at 2 MPH (2 knots; 1.0 m/s)
Visibility: 5 miles ( 8 km)
Ceiling: at least 12,000 feet AGL
Clouds: few clouds at 2800 feet AGL
Weather: no significant weather observed at this time

METAR text: RJAA 172100Z 33001KT 8000 FEW028 26/24 Q1006 NOSIG
Conditions at: RJAA (NARITA INTL , JP) observed 2100 UTC 17 August 2019
Temperature: 26.0°C (79°F)
Dewpoint: 24.0°C (75°F) [RH = 89%]
Pressure (altimeter): 29.70 inches Hg (1006.0 mb)
Winds: from the NNW (330 degrees) at 1 MPH (1 knots; 0.5 m/s)
Visibility: 5 miles ( 8 km)
Ceiling: at least 12,000 feet AGL
Clouds: few clouds at 2800 feet AGL
Weather: no significant weather observed at this time

METAR text: RJAA 172030Z 20001KT 6000 FEW030 24/24 Q1006 BECMG 02005KT
Conditions at: RJAA (NARITA INTL , JP) observed 2030 UTC 17 August 2019
Temperature: 24.0°C (75°F)
Dewpoint: 24.0°C (75°F) [RH = 100%]
Pressure (altimeter): 29.70 inches Hg (1006.0 mb)
Winds: from the SSW (200 degrees) at 1 MPH (1 knots; 0.5 m/s)
Visibility: 4 miles ( 6 km)
Ceiling: at least 12,000 feet AGL
Clouds: few clouds at 3000 feet AGL
Weather: no significant weather observed at this time

METAR text: RJAA 172000Z 17002KT 6000 FEW030 SCT/// 24/23 Q1005 NOSIG
Conditions at: RJAA (NARITA INTL , JP) observed 2000 UTC 17 August 2019
Temperature: 24.0°C (75°F)
Dewpoint: 23.0°C (73°F) [RH = 94%]
Pressure (altimeter): 29.68 inches Hg (1005.0 mb)
Winds: from the S (170 degrees) at 2 MPH (2 knots; 1.0 m/s)
Visibility: 4 miles ( 6 km)
Ceiling: at least 12,000 feet AGL
Clouds: few clouds at 3000 feet AGL
Weather: no significant weather observed at this time

METAR text: RJAA 171930Z VRB01KT 6000 FEW030 24/23 Q1005 NOSIG
Conditions at: RJAA (NARITA INTL , JP) observed 1930 UTC 17 August 2019
Temperature: 24.0°C (75°F)
Dewpoint: 23.0°C (73°F) [RH = 94%]
Pressure (altimeter): 29.68 inches Hg (1005.0 mb)
Winds: variable direction winds at 1 MPH (1 knots; 0.5 m/s)
Visibility: 4 miles ( 6 km)
Ceiling: at least 12,000 feet AGL
Clouds: few clouds at 3000 feet AGL
Weather: no significant weather observed at this time

METAR text: RJAA 171900Z VRB01KT 7000 FEW030 24/23 Q1005 NOSIG
Conditions at: RJAA (NARITA INTL , JP) observed 1900 UTC 17 August 2019
Temperature: 24.0°C (75°F)
Dewpoint: 23.0°C (73°F) [RH = 94%]
Pressure (altimeter): 29.68 inches Hg (1005.0 mb)
Winds: variable direction winds at 1 MPH (1 knots; 0.5 m/s)
Visibility: 4 miles ( 7 km)
Ceiling: at least 12,000 feet AGL
Clouds: few clouds at 3000 feet AGL
Weather: no significant weather observed at this time

METAR text: RJAA 171830Z VRB01KT 7000 FEW030 24/24 Q1005 NOSIG
Conditions at: RJAA (NARITA INTL , JP) observed 1830 UTC 17 August 2019
Temperature: 24.0°C (75°F)
Dewpoint: 24.0°C (75°F) [RH = 100%]
Pressure (altimeter): 29.68 inches Hg (1005.0 mb)
Winds: variable direction winds at 1 MPH (1 knots; 0.5 m/s)
Visibility: 4 miles ( 7 km)
Ceiling: at least 12,000 feet AGL
Clouds: few clouds at 3000 feet AGL
Weather: no significant weather observed at this time

METAR text: RJAA 171800Z 16001KT 8000 FEW030 24/24 Q1005 NOSIG
Conditions at: RJAA (NARITA INTL , JP) observed 1800 UTC 17 August 2019
Temperature: 24.0°C (75°F)
Dewpoint: 24.0°C (75°F) [RH = 100%]
Pressure (altimeter): 29.68 inches Hg (1005.0 mb)
Winds: from the SSE (160 degrees) at 1 MPH (1 knots; 0.5 m/s)
Visibility: 5 miles ( 8 km)
Ceiling: at least 12,000 feet AGL
Clouds: few clouds at 3000 feet AGL
Weather: no significant weather observed at this time

METAR text: RJAA 171730Z 17001KT 8000 FEW030 24/23 Q1005 NOSIG
Conditions at: RJAA (NARITA INTL , JP) observed 1730 UTC 17 August 2019
Temperature: 24.0°C (75°F)
Dewpoint: 23.0°C (73°F) [RH = 94%]
Pressure (altimeter): 29.68 inches Hg (1005.0 mb)
Winds: from the S (170 degrees) at 1 MPH (1 knots; 0.5 m/s)
Visibility: 5 miles ( 8 km)
Ceiling: at least 12,000 feet AGL
Clouds: few clouds at 3000 feet AGL
Weather: no significant weather observed at this time

METAR text: RJAA 171700Z VRB01KT 7000 FEW030 24/24 Q1004 NOSIG
Conditions at: RJAA (NARITA INTL , JP) observed 1700 UTC 17 August 2019
Temperature: 24.0°C (75°F)
Dewpoint: 24.0°C (75°F) [RH = 100%]
Pressure (altimeter): 29.65 inches Hg (1004.0 mb)
Winds: variable direction winds at 1 MPH (1 knots; 0.5 m/s)
Visibility: 4 miles ( 7 km)
Ceiling: at least 12,000 feet AGL
Clouds: few clouds at 3000 feet AGL
Weather: no significant weather observed at this time

METAR text: RJAA 171630Z VRB01KT 7000 FEW030 25/24 Q1004 NOSIG RMK 1CU030 A2967
Conditions at: RJAA (NARITA INTL , JP) observed 1630 UTC 17 August 2019
Temperature: 25.0°C (77°F)
Dewpoint: 24.0°C (75°F) [RH = 94%]
Pressure (altimeter): 29.65 inches Hg (1004.0 mb)
Winds: variable direction winds at 1 MPH (1 knots; 0.5 m/s)
Visibility: 4 miles ( 7 km)
Ceiling: at least 12,000 feet AGL
Clouds: few clouds at 3000 feet AGL
Weather: no significant weather observed at this time

METAR text: RJAA 171600Z VRB01KT 7000 FEW030 25/24 Q1004 NOSIG RMK 1CU030 A2967
Conditions at: RJAA (NARITA INTL , JP) observed 1600 UTC 17 August 2019
Temperature: 25.0°C (77°F)
Dewpoint: 24.0°C (75°F) [RH = 94%]
Pressure (altimeter): 29.65 inches Hg (1004.0 mb)
Winds: variable direction winds at 1 MPH (1 knots; 0.5 m/s)
Visibility: 4 miles ( 7 km)
Ceiling: at least 12,000 feet AGL
Clouds: few clouds at 3000 feet AGL
Weather: no significant weather observed at this time

METAR text: RJAA 171530Z 17002KT 7000 FEW030 24/24 Q1004 NOSIG RMK 1CU030 A2967
Conditions at: RJAA (NARITA INTL , JP) observed 1530 UTC 17 August 2019
Temperature: 24.0°C (75°F)
Dewpoint: 24.0°C (75°F) [RH = 100%]
Pressure (altimeter): 29.65 inches Hg (1004.0 mb)
Winds: from the S (170 degrees) at 2 MPH (2 knots; 1.0 m/s)
Visibility: 4 miles ( 7 km)
Ceiling: at least 12,000 feet AGL
Clouds: few clouds at 3000 feet AGL
Weather: no significant weather observed at this time

Forecast for: AMD
Text: TAF AMD RJAA 190140Z 1901/2006 04010KT 8000 FEW008 BKN012
Forecast period: 0100 to 0800 UTC 19 August 2019
Forecast type: FROM: standard forecast or significant change
Winds: from the NE (40 degrees) at 12 MPH (10 knots; 5.1 m/s)
Visibility: 5 miles (8 km)
Ceiling: 1200 feet AGL
Clouds: few clouds at 800 feet AGL
broken clouds at 1200 feet AGL
Weather: no significant weather forecast for this period
Text: TEMPO 1901/1905 4000 -SHRA BR FEW005 BKN008
Forecast period: 0100 to 0500 UTC 19 August 2019
Forecast type: TEMPORARY: The following changes expected for less than half the time period
Visibility: 2.49 miles (4.01 km)
Ceiling: 800 feet AGL
Clouds: few clouds at 500 feet AGL
broken clouds at 800 feet AGL
Weather: -SHRA BR  (light rain showers, mist)
Text: BECMG 1908/1910 FEW003 BKN008
Forecast period: 0800 to 1800 UTC 19 August 2019
Forecast type: BECOMING: Conditions expected to become as follows by 1000 UTC 19 August 2019
Winds: from the NE (40 degrees) at 12 MPH (10 knots; 5.1 m/s)
Visibility: 5 miles (8 km)
Ceiling: 800 feet AGL
Clouds: few clouds at 300 feet AGL
broken clouds at 800 feet AGL
Weather: no significant weather forecast for this period
Text: BECMG 1918/1921 13008KT FEW010 BKN020
Forecast period: 1800 UTC 19 August 2019 to 0600 UTC 20 August 2019
Forecast type: BECOMING: Conditions expected to become as follows by 2100 UTC 19 August 2019
Winds: from the SE (130 degrees) at 9 MPH (8 knots; 4.1 m/s)
Visibility: 5 miles (8 km)
Ceiling: 2000 feet AGL
Clouds: few clouds at 1000 feet AGL
broken clouds at 2000 feet AGL
Weather: no significant weather forecast for this period